sensor_id;sensor_type;location;lat;lon;timestamp;pressure;altitude;pressure_sealevel;temperature;humidity
33625;BME280;19962;47.820;1.930;2023-04-26T00:00:25;100623.22;;;12.99;66.38
33625;BME280;19962;47.820;1.930;2023-04-26T00:02:51;100619.63;;;12.98;66.33
33625;BME280;19962;47.820;1.930;2023-04-26T00:05:18;100605.94;;;12.92;66.71
33625;BME280;19962;47.820;1.930;2023-04-26T00:07:44;100610.53;;;12.98;66.64
33625;BME280;19962;47.820;1.930;2023-04-26T00:10:10;100617.81;;;13.04;66.38
33625;BME280;19962;47.820;1.930;2023-04-26T00:12:37;100615.06;;;13.04;66.27
33625;BME280;19962;47.820;1.930;2023-04-26T00:15:03;100605.47;;;12.95;66.83
33625;BME280;19962;47.820;1.930;2023-04-26T00:17:30;100606.22;;;13.02;66.64
33625;BME280;19962;47.820;1.930;2023-04-26T00:19:56;100610.00;;;13.12;66.63
33625;BME280;19962;47.820;1.930;2023-04-26T00:22:23;100603.84;;;13.22;66.22
33625;BME280;19962;47.820;1.930;2023-04-26T00:24:50;100606.50;;;13.17;66.01
33625;BME280;19962;47.820;1.930;2023-04-26T00:27:16;100615.84;;;13.16;65.85
33625;BME280;19962;47.820;1.930;2023-04-26T00:29:42;100618.50;;;13.11;66.18
33625;BME280;19962;47.820;1.930;2023-04-26T00:32:08;100623.50;;;13.14;65.93
33625;BME280;19962;47.820;1.930;2023-04-26T00:34:35;100623.22;;;12.99;66.51
33625;BME280;19962;47.820;1.930;2023-04-26T00:37:03;100640.97;;;12.80;67.15
33625;BME280;19962;47.820;1.930;2023-04-26T00:39:29;100612.31;;;12.92;66.72
33625;BME280;19962;47.820;1.930;2023-04-26T00:41:56;100605.38;;;12.90;66.70
33625;BME280;19962;47.820;1.930;2023-04-26T00:44:22;100589.31;;;12.87;66.99
33625;BME280;19962;47.820;1.930;2023-04-26T00:46:51;100597.44;;;12.93;66.99
33625;BME280;19962;47.820;1.930;2023-04-26T00:49:19;100588.13;;;13.06;66.56
33625;BME280;19962;47.820;1.930;2023-04-26T00:51:47;100579.34;;;13.09;66.22
33625;BME280;19962;47.820;1.930;2023-04-26T00:54:15;100591.34;;;13.03;66.02
33625;BME280;19962;47.820;1.930;2023-04-26T00:56:41;100582.25;;;12.91;66.64
33625;BME280;19962;47.820;1.930;2023-04-26T00:59:08;100574.59;;;12.93;66.83
33625;BME280;19962;47.820;1.930;2023-04-26T01:01:34;100576.75;;;12.91;66.51
33625;BME280;19962;47.820;1.930;2023-04-26T01:04:01;100569.38;;;12.80;66.88
33625;BME280;19962;47.820;1.930;2023-04-26T01:06:33;100561.72;;;12.70;67.20
33625;BME280;19962;47.820;1.930;2023-04-26T01:09:02;100563.16;;;12.73;67.36
33625;BME280;19962;47.820;1.930;2023-04-26T01:11:30;100555.66;;;12.68;67.51
33625;BME280;19962;47.820;1.930;2023-04-26T01:13:57;100564.19;;;12.55;67.73
33625;BME280;19962;47.820;1.930;2023-04-26T01:16:23;100546.25;;;12.53;68.10
33625;BME280;19962;47.820;1.930;2023-04-26T01:18:50;100558.19;;;12.47;68.17
33625;BME280;19962;47.820;1.930;2023-04-26T01:21:21;100565.88;;;12.45;67.95
33625;BME280;19962;47.820;1.930;2023-04-26T01:23:51;100565.41;;;12.48;68.70
33625;BME280;19962;47.820;1.930;2023-04-26T01:26:18;100547.56;;;12.50;68.36
33625;BME280;19962;47.820;1.930;2023-04-26T01:28:44;100548.25;;;12.57;68.14
33625;BME280;19962;47.820;1.930;2023-04-26T01:31:11;100541.41;;;12.60;67.95
33625;BME280;19962;47.820;1.930;2023-04-26T01:33:38;100540.03;;;12.46;68.47
33625;BME280;19962;47.820;1.930;2023-04-26T01:36:08;100542.41;;;12.54;68.51
33625;BME280;19962;47.820;1.930;2023-04-26T01:38:35;100534.25;;;12.59;67.89
33625;BME280;19962;47.820;1.930;2023-04-26T01:41:01;100529.59;;;12.59;68.23
33625;BME280;19962;47.820;1.930;2023-04-26T01:43:27;100531.88;;;12.51;68.10
33625;BME280;19962;47.820;1.930;2023-04-26T01:45:54;100534.16;;;12.54;68.20
33625;BME280;19962;47.820;1.930;2023-04-26T01:48:20;100545.66;;;12.39;68.29
33625;BME280;19962;47.820;1.930;2023-04-26T01:50:46;100537.75;;;12.43;68.58
33625;BME280;19962;47.820;1.930;2023-04-26T01:53:12;100542.25;;;12.60;68.25
33625;BME280;19962;47.820;1.930;2023-04-26T01:55:38;100546.38;;;12.86;67.39
33625;BME280;19962;47.820;1.930;2023-04-26T01:58:04;100535.97;;;12.76;67.36
33625;BME280;19962;47.820;1.930;2023-04-26T02:00:32;100545.19;;;12.82;67.32
33625;BME280;19962;47.820;1.930;2023-04-26T02:02:58;100545.19;;;12.82;67.38
33625;BME280;19962;47.820;1.930;2023-04-26T02:05:24;100547.88;;;12.93;67.06
33625;BME280;19962;47.820;1.930;2023-04-26T02:07:50;100542.97;;;12.95;66.75
33625;BME280;19962;47.820;1.930;2023-04-26T02:10:16;100542.19;;;12.83;67.01
33625;BME280;19962;47.820;1.930;2023-04-26T02:12:42;100540.56;;;12.71;67.34
33625;BME280;19962;47.820;1.930;2023-04-26T02:15:09;100537.78;;;12.82;67.20
33625;BME280;19962;47.820;1.930;2023-04-26T02:17:35;100533.88;;;12.95;66.86
33625;BME280;19962;47.820;1.930;2023-04-26T02:20:03;100533.88;;;12.95;66.57
33625;BME280;19962;47.820;1.930;2023-04-26T02:22:29;100530.94;;;12.85;66.88
33625;BME280;19962;47.820;1.930;2023-04-26T02:24:56;100533.22;;;12.88;66.60
33625;BME280;19962;47.820;1.930;2023-04-26T02:27:22;100538.09;;;12.86;66.80
33625;BME280;19962;47.820;1.930;2023-04-26T02:29:48;100533.78;;;12.90;66.99
33625;BME280;19962;47.820;1.930;2023-04-26T02:32:14;100526.72;;;12.94;66.55
33625;BME280;19962;47.820;1.930;2023-04-26T02:34:41;100524.66;;;12.89;66.59
33625;BME280;19962;47.820;1.930;2023-04-26T02:37:07;100518.94;;;12.91;66.58
33625;BME280;19962;47.820;1.930;2023-04-26T02:39:34;100527.69;;;12.99;66.52
33625;BME280;19962;47.820;1.930;2023-04-26T02:42:00;100526.84;;;12.99;66.37
33625;BME280;19962;47.820;1.930;2023-04-26T02:44:30;100525.97;;;12.98;66.44
33625;BME280;19962;47.820;1.930;2023-04-26T02:46:57;100520.88;;;12.90;66.41
33625;BME280;19962;47.820;1.930;2023-04-26T02:49:23;100525.53;;;12.90;66.58
33625;BME280;19962;47.820;1.930;2023-04-26T02:51:49;100528.91;;;12.80;66.89
33625;BME280;19962;47.820;1.930;2023-04-26T02:54:15;100532.59;;;12.86;66.71
33625;BME280;19962;47.820;1.930;2023-04-26T02:56:42;100534.44;;;12.69;67.13
33625;BME280;19962;47.820;1.930;2023-04-26T02:59:08;100536.53;;;12.62;67.79
33625;BME280;19962;47.820;1.930;2023-04-26T03:01:34;100526.28;;;12.74;67.34
33625;BME280;19962;47.820;1.930;2023-04-26T03:04:00;100528.66;;;12.82;66.95
33625;BME280;19962;47.820;1.930;2023-04-26T03:06:26;100523.16;;;12.82;66.87
33625;BME280;19962;47.820;1.930;2023-04-26T03:08:53;100529.88;;;12.74;66.72
33625;BME280;19962;47.820;1.930;2023-04-26T03:11:19;100519.25;;;12.66;67.33
33625;BME280;19962;47.820;1.930;2023-04-26T03:13:45;100518.22;;;12.56;67.51
33625;BME280;19962;47.820;1.930;2023-04-26T03:16:11;100515.34;;;12.51;67.78
33625;BME280;19962;47.820;1.930;2023-04-26T03:18:37;100512.97;;;12.43;68.19
33625;BME280;19962;47.820;1.930;2023-04-26T03:21:03;100510.84;;;12.45;68.14
33625;BME280;19962;47.820;1.930;2023-04-26T03:23:30;100507.72;;;12.53;68.06
33625;BME280;19962;47.820;1.930;2023-04-26T03:25:56;100515.09;;;12.64;67.86
33625;BME280;19962;47.820;1.930;2023-04-26T03:28:22;100514.00;;;12.65;67.54
33625;BME280;19962;47.820;1.930;2023-04-26T03:30:48;100514.59;;;12.67;67.60
33625;BME280;19962;47.820;1.930;2023-04-26T03:33:15;100506.53;;;12.77;67.08
33625;BME280;19962;47.820;1.930;2023-04-26T03:35:42;100497.84;;;12.68;67.21
33625;BME280;19962;47.820;1.930;2023-04-26T03:38:08;100500.75;;;12.62;67.38
33625;BME280;19962;47.820;1.930;2023-04-26T03:40:34;100495.81;;;12.64;67.82
33625;BME280;19962;47.820;1.930;2023-04-26T03:43:00;100495.44;;;12.72;67.33
33625;BME280;19962;47.820;1.930;2023-04-26T03:45:27;100490.81;;;12.61;67.74
33625;BME280;19962;47.820;1.930;2023-04-26T03:47:53;100485.69;;;12.53;68.09
33625;BME280;19962;47.820;1.930;2023-04-26T03:50:19;100479.44;;;12.57;67.82
33625;BME280;19962;47.820;1.930;2023-04-26T03:52:45;100473.59;;;12.54;68.12
33625;BME280;19962;47.820;1.930;2023-04-26T03:55:11;100468.00;;;12.49;68.29
33625;BME280;19962;47.820;1.930;2023-04-26T03:57:38;100474.47;;;12.43;68.25
33625;BME280;19962;47.820;1.930;2023-04-26T04:00:04;100466.19;;;12.54;68.04
33625;BME280;19962;47.820;1.930;2023-04-26T04:02:39;100481.06;;;12.42;68.27
33625;BME280;19962;47.820;1.930;2023-04-26T04:05:05;100475.94;;;12.34;68.56
33625;BME280;19962;47.820;1.930;2023-04-26T04:07:33;100473.91;;;12.29;69.21
33625;BME280;19962;47.820;1.930;2023-04-26T04:10:00;100473.69;;;12.31;69.14
33625;BME280;19962;47.820;1.930;2023-04-26T04:12:26;100465.78;;;12.34;69.19
33625;BME280;19962;47.820;1.930;2023-04-26T04:14:52;100475.44;;;12.37;68.58
33625;BME280;19962;47.820;1.930;2023-04-26T04:17:18;100473.31;;;12.39;68.91
33625;BME280;19962;47.820;1.930;2023-04-26T04:19:44;100480.47;;;12.40;68.72
33625;BME280;19962;47.820;1.930;2023-04-26T04:22:11;100473.03;;;12.40;68.82
33625;BME280;19962;47.820;1.930;2023-04-26T04:24:37;100476.97;;;12.44;68.41
33625;BME280;19962;47.820;1.930;2023-04-26T04:27:03;100479.97;;;12.43;68.69
33625;BME280;19962;47.820;1.930;2023-04-26T04:29:29;100481.25;;;12.52;68.50
33625;BME280;19962;47.820;1.930;2023-04-26T04:31:56;100481.84;;;12.54;68.10
33625;BME280;19962;47.820;1.930;2023-04-26T04:34:22;100488.88;;;12.61;68.15
33625;BME280;19962;47.820;1.930;2023-04-26T04:36:49;100482.16;;;12.69;67.62
33625;BME280;19962;47.820;1.930;2023-04-26T04:39:15;100487.09;;;12.67;67.73
33625;BME280;19962;47.820;1.930;2023-04-26T04:41:42;100487.38;;;12.54;67.87
33625;BME280;19962;47.820;1.930;2023-04-26T04:44:15;100480.47;;;12.40;68.53
33625;BME280;19962;47.820;1.930;2023-04-26T04:46:42;100486.69;;;12.35;68.88
33625;BME280;19962;47.820;1.930;2023-04-26T04:49:09;100488.00;;;12.33;69.01
33625;BME280;19962;47.820;1.930;2023-04-26T04:51:36;100495.78;;;12.36;68.83
33625;BME280;19962;47.820;1.930;2023-04-26T04:54:13;100494.75;;;12.25;69.78
33625;BME280;19962;47.820;1.930;2023-04-26T04:56:40;100492.31;;;12.29;69.47
33625;BME280;19962;47.820;1.930;2023-04-26T04:59:06;100492.28;;;12.40;69.02
33625;BME280;19962;47.820;1.930;2023-04-26T05:01:33;100500.06;;;12.43;68.97
33625;BME280;19962;47.820;1.930;2023-04-26T05:04:00;100496.84;;;12.46;68.89
33625;BME280;19962;47.820;1.930;2023-04-26T05:06:27;100496.19;;;12.56;68.38
33625;BME280;19962;47.820;1.930;2023-04-26T05:08:55;100509.81;;;12.62;67.94
33625;BME280;19962;47.820;1.930;2023-04-26T05:11:21;100507.44;;;12.66;67.84
33625;BME280;19962;47.820;1.930;2023-04-26T05:13:48;100507.44;;;12.66;67.95
33625;BME280;19962;47.820;1.930;2023-04-26T05:16:14;100507.06;;;12.62;68.09
33625;BME280;19962;47.820;1.930;2023-04-26T05:18:40;100505.44;;;12.50;68.65
33625;BME280;19962;47.820;1.930;2023-04-26T05:21:07;100507.72;;;12.53;68.73
33625;BME280;19962;47.820;1.930;2023-04-26T05:23:33;100510.38;;;12.48;68.75
33625;BME280;19962;47.820;1.930;2023-04-26T05:26:06;100511.94;;;12.44;68.86
33625;BME280;19962;47.820;1.930;2023-04-26T05:28:32;100512.97;;;12.43;68.78
33625;BME280;19962;47.820;1.930;2023-04-26T05:30:59;100509.19;;;12.44;68.81
33625;BME280;19962;47.820;1.930;2023-04-26T05:33:29;100509.19;;;12.44;68.93
33625;BME280;19962;47.820;1.930;2023-04-26T05:35:55;100514.44;;;12.45;69.14
33625;BME280;19962;47.820;1.930;2023-04-26T05:38:23;100508.34;;;12.43;69.17
33625;BME280;19962;47.820;1.930;2023-04-26T05:40:49;100515.34;;;12.51;69.06
33625;BME280;19962;47.820;1.930;2023-04-26T05:43:16;100516.28;;;12.68;68.47
33625;BME280;19962;47.820;1.930;2023-04-26T05:45:55;100509.59;;;12.64;68.54
33625;BME280;19962;47.820;1.930;2023-04-26T05:48:23;100509.78;;;12.74;68.21
33625;BME280;19962;47.820;1.930;2023-04-26T05:50:50;100500.47;;;12.75;68.40
33625;BME280;19962;47.820;1.930;2023-04-26T05:53:17;100499.47;;;12.81;67.76
33625;BME280;19962;47.820;1.930;2023-04-26T05:55:46;100511.66;;;12.85;67.91
33625;BME280;19962;47.820;1.930;2023-04-26T05:58:13;100518.59;;;12.87;67.63
33625;BME280;19962;47.820;1.930;2023-04-26T06:00:39;100517.34;;;12.95;67.63
33625;BME280;19962;47.820;1.930;2023-04-26T06:03:06;100518.19;;;12.95;67.47
33625;BME280;19962;47.820;1.930;2023-04-26T06:05:32;100516.53;;;12.94;67.63
33625;BME280;19962;47.820;1.930;2023-04-26T06:07:58;100524.25;;;12.81;67.78
33625;BME280;19962;47.820;1.930;2023-04-26T06:10:25;100510.97;;;12.78;67.97
33625;BME280;19962;47.820;1.930;2023-04-26T06:12:51;100514.31;;;12.80;68.00
33625;BME280;19962;47.820;1.930;2023-04-26T06:15:17;100516.06;;;12.86;68.08
33625;BME280;19962;47.820;1.930;2023-04-26T06:17:43;100518.84;;;12.86;68.08
33625;BME280;19962;47.820;1.930;2023-04-26T06:20:10;100511.84;;;12.95;67.65
33625;BME280;19962;47.820;1.930;2023-04-26T06:22:36;100526.25;;;12.97;67.64
33625;BME280;19962;47.820;1.930;2023-04-26T06:25:04;100521.19;;;12.94;67.63
33625;BME280;19962;47.820;1.930;2023-04-26T06:27:30;100523.72;;;12.95;67.67
33625;BME280;19962;47.820;1.930;2023-04-26T06:29:56;100516.06;;;12.97;67.97
33625;BME280;19962;47.820;1.930;2023-04-26T06:32:22;100519.88;;;12.96;67.67
33625;BME280;19962;47.820;1.930;2023-04-26T06:34:48;100522.19;;;12.88;68.42
33625;BME280;19962;47.820;1.930;2023-04-26T06:37:14;100519.78;;;12.91;68.25
33625;BME280;19962;47.820;1.930;2023-04-26T06:39:41;100516.06;;;12.97;67.87
33625;BME280;19962;47.820;1.930;2023-04-26T06:42:07;100529.59;;;12.99;68.01
33625;BME280;19962;47.820;1.930;2023-04-26T06:44:33;100528.59;;;13.05;68.00
33625;BME280;19962;47.820;1.930;2023-04-26T06:46:59;100518.84;;;13.14;67.60
33625;BME280;19962;47.820;1.930;2023-04-26T06:49:25;100527.94;;;13.14;67.72
33625;BME280;19962;47.820;1.930;2023-04-26T06:51:51;100537.16;;;13.20;67.38
33625;BME280;19962;47.820;1.930;2023-04-26T06:54:18;100529.69;;;13.20;67.49
33625;BME280;19962;47.820;1.930;2023-04-26T06:56:44;100517.78;;;13.15;67.48
33625;BME280;19962;47.820;1.930;2023-04-26T06:59:11;100510.25;;;13.10;67.76
33625;BME280;19962;47.820;1.930;2023-04-26T07:01:38;100519.94;;;13.13;67.95
33625;BME280;19962;47.820;1.930;2023-04-26T07:04:05;100519.50;;;13.04;67.93
33625;BME280;19962;47.820;1.930;2023-04-26T07:06:36;100519.94;;;13.13;68.02
33625;BME280;19962;47.820;1.930;2023-04-26T07:09:03;100522.19;;;13.16;68.14
33625;BME280;19962;47.820;1.930;2023-04-26T07:11:29;100519.06;;;13.24;67.79
33625;BME280;19962;47.820;1.930;2023-04-26T07:13:56;100513.22;;;13.37;67.77
33625;BME280;19962;47.820;1.930;2023-04-26T07:16:22;100510.56;;;13.42;67.51
33625;BME280;19962;47.820;1.930;2023-04-26T07:18:48;100502.84;;;13.44;67.37
33625;BME280;19962;47.820;1.930;2023-04-26T07:21:14;100510.47;;;13.53;67.07
33625;BME280;19962;47.820;1.930;2023-04-26T07:23:41;100511.19;;;13.65;66.90
33625;BME280;19962;47.820;1.930;2023-04-26T07:26:09;100501.63;;;13.68;67.07
33625;BME280;19962;47.820;1.930;2023-04-26T07:28:35;100502.69;;;13.67;67.19
33625;BME280;19962;47.820;1.930;2023-04-26T07:31:01;100504.38;;;13.68;67.37
33625;BME280;19962;47.820;1.930;2023-04-26T07:33:27;100499.44;;;13.70;67.57
33625;BME280;19962;47.820;1.930;2023-04-26T07:35:55;100498.25;;;13.66;67.53
33625;BME280;19962;47.820;1.930;2023-04-26T07:38:22;100497.84;;;13.74;67.60
33625;BME280;19962;47.820;1.930;2023-04-26T07:40:48;100494.84;;;13.75;67.30
33625;BME280;19962;47.820;1.930;2023-04-26T07:43:15;100496.19;;;13.73;67.43
33625;BME280;19962;47.820;1.930;2023-04-26T07:45:41;100481.88;;;13.76;67.69
33625;BME280;19962;47.820;1.930;2023-04-26T07:48:07;100485.38;;;13.88;67.47
33625;BME280;19962;47.820;1.930;2023-04-26T07:50:34;100482.69;;;13.93;67.48
33625;BME280;19962;47.820;1.930;2023-04-26T07:53:00;100478.59;;;13.95;67.64
33625;BME280;19962;47.820;1.930;2023-04-26T07:55:26;100477.97;;;14.10;67.63
33625;BME280;19962;47.820;1.930;2023-04-26T07:57:52;100487.25;;;14.20;67.47
33625;BME280;19962;47.820;1.930;2023-04-26T08:00:19;100482.06;;;14.24;67.34
33625;BME280;19962;47.820;1.930;2023-04-26T08:02:47;100485.72;;;14.29;66.88
33625;BME280;19962;47.820;1.930;2023-04-26T08:05:14;100486.09;;;14.38;66.38
33625;BME280;19962;47.820;1.930;2023-04-26T08:07:41;100491.63;;;14.38;66.17
33625;BME280;19962;47.820;1.930;2023-04-26T08:10:08;100480.63;;;14.43;65.89
33625;BME280;19962;47.820;1.930;2023-04-26T08:12:35;100482.63;;;14.47;65.65
33625;BME280;19962;47.820;1.930;2023-04-26T08:15:02;100475.81;;;14.55;65.27
33625;BME280;19962;47.820;1.930;2023-04-26T08:17:32;100471.81;;;14.67;64.99
33625;BME280;19962;47.820;1.930;2023-04-26T08:19:59;100477.47;;;14.77;65.20
33625;BME280;19962;47.820;1.930;2023-04-26T08:22:25;100467.19;;;14.73;65.42
33625;BME280;19962;47.820;1.930;2023-04-26T08:24:54;100469.66;;;14.69;65.88
33625;BME280;19962;47.820;1.930;2023-04-26T08:27:20;100468.81;;;14.69;65.95
33625;BME280;19962;47.820;1.930;2023-04-26T08:29:47;100462.53;;;14.73;65.53
33625;BME280;19962;47.820;1.930;2023-04-26T08:32:13;100469.16;;;14.72;65.91
33625;BME280;19962;47.820;1.930;2023-04-26T08:34:39;100465.50;;;14.67;65.95
33625;BME280;19962;47.820;1.930;2023-04-26T08:37:10;100468.34;;;14.77;66.02
33625;BME280;19962;47.820;1.930;2023-04-26T08:39:36;100468.47;;;14.87;65.97
33625;BME280;19962;47.820;1.930;2023-04-26T08:42:13;100465.75;;;14.92;66.16
33625;BME280;19962;47.820;1.930;2023-04-26T08:44:42;100468.03;;;15.00;66.00
33625;BME280;19962;47.820;1.930;2023-04-26T08:49:53;100460.19;;;15.13;65.27
33625;BME280;19962;47.820;1.930;2023-04-26T08:52:27;100455.22;;;15.15;65.02
33625;BME280;19962;47.820;1.930;2023-04-26T08:54:54;100462.72;;;15.20;64.58
33625;BME280;19962;47.820;1.930;2023-04-26T08:57:22;100458.13;;;15.30;64.43
33625;BME280;19962;47.820;1.930;2023-04-26T08:59:49;100465.13;;;15.38;64.70
33625;BME280;19962;47.820;1.930;2023-04-26T09:02:21;100450.81;;;15.46;64.80
33625;BME280;19962;47.820;1.930;2023-04-26T09:04:48;100451.38;;;15.48;65.03
33625;BME280;19962;47.820;1.930;2023-04-26T09:07:42;100442.88;;;15.54;64.43
33625;BME280;19962;47.820;1.930;2023-04-26T09:10:10;100439.28;;;15.59;64.33
33625;BME280;19962;47.820;1.930;2023-04-26T09:12:37;100440.13;;;15.59;64.33
33625;BME280;19962;47.820;1.930;2023-04-26T09:15:07;100432.69;;;15.60;64.33
33625;BME280;19962;47.820;1.930;2023-04-26T09:17:35;100433.84;;;15.69;64.19
33625;BME280;19962;47.820;1.930;2023-04-26T09:20:18;100439.44;;;15.79;63.35
33625;BME280;19962;47.820;1.930;2023-04-26T09:22:45;100444.75;;;15.85;63.72
33625;BME280;19962;47.820;1.930;2023-04-26T09:25:12;100442.25;;;15.84;63.90
33625;BME280;19962;47.820;1.930;2023-04-26T09:27:40;100437.88;;;15.93;63.91
33625;BME280;19962;47.820;1.930;2023-04-26T09:30:08;100432.97;;;16.05;62.96
33625;BME280;19962;47.820;1.930;2023-04-26T09:32:44;100434.66;;;16.16;62.90
33625;BME280;19962;47.820;1.930;2023-04-26T09:35:39;100441.91;;;16.22;62.10
33625;BME280;19962;47.820;1.930;2023-04-26T09:38:12;100438.06;;;16.28;62.50
33625;BME280;19962;47.820;1.930;2023-04-26T09:40:47;100448.59;;;16.31;61.56
33625;BME280;19962;47.820;1.930;2023-04-26T09:43:17;100446.66;;;16.36;61.80
33625;BME280;19962;47.820;1.930;2023-04-26T09:45:54;100445.63;;;16.42;60.94
33625;BME280;19962;47.820;1.930;2023-04-26T09:48:26;100446.63;;;16.26;61.72
33625;BME280;19962;47.820;1.930;2023-04-26T09:50:58;100433.66;;;16.32;61.41
33625;BME280;19962;47.820;1.930;2023-04-26T09:55:55;100434.31;;;16.49;61.78
33625;BME280;19962;47.820;1.930;2023-04-26T09:58:21;100436.50;;;16.52;61.32
33625;BME280;19962;47.820;1.930;2023-04-26T10:00:50;100436.25;;;16.58;61.83
33625;BME280;19962;47.820;1.930;2023-04-26T10:03:18;100433.78;;;16.62;61.65
33625;BME280;19962;47.820;1.930;2023-04-26T10:05:45;100433.47;;;16.53;61.66
33625;BME280;19962;47.820;1.930;2023-04-26T10:08:12;100435.19;;;16.64;61.89
33625;BME280;19962;47.820;1.930;2023-04-26T10:10:38;100431.03;;;16.67;61.29
33625;BME280;19962;47.820;1.930;2023-04-26T10:13:06;100441.84;;;16.68;61.29
33625;BME280;19962;47.820;1.930;2023-04-26T10:15:33;100426.06;;;16.74;61.20
33625;BME280;19962;47.820;1.930;2023-04-26T10:18:00;100422.22;;;16.80;61.10
33625;BME280;19962;47.820;1.930;2023-04-26T10:20:27;100418.06;;;16.82;60.31
33625;BME280;19962;47.820;1.930;2023-04-26T10:22:56;100414.97;;;16.69;60.51
33625;BME280;19962;47.820;1.930;2023-04-26T10:25:36;100415.50;;;16.61;60.60
33625;BME280;19962;47.820;1.930;2023-04-26T10:28:03;100408.63;;;16.78;60.68
33625;BME280;19962;47.820;1.930;2023-04-26T10:30:30;100415.28;;;16.92;60.37
33625;BME280;19962;47.820;1.930;2023-04-26T10:35:24;100417.25;;;17.07;58.86
33625;BME280;19962;47.820;1.930;2023-04-26T10:40:36;100415.28;;;17.12;58.34
33625;BME280;19962;47.820;1.930;2023-04-26T10:45:45;100418.34;;;17.06;58.25
33625;BME280;19962;47.820;1.930;2023-04-26T10:53:25;100406.16;;;17.12;58.57
33625;BME280;19962;47.820;1.930;2023-04-26T10:55:51;100405.06;;;17.18;58.14
33625;BME280;19962;47.820;1.930;2023-04-26T10:58:34;100401.16;;;17.19;57.05
33625;BME280;19962;47.820;1.930;2023-04-26T11:03:30;100394.81;;;17.18;56.28
33625;BME280;19962;47.820;1.930;2023-04-26T11:05:57;100392.88;;;17.24;56.19
33625;BME280;19962;47.820;1.930;2023-04-26T11:08:27;100386.75;;;17.27;55.52
33625;BME280;19962;47.820;1.930;2023-04-26T11:13:31;100383.16;;;17.31;56.46
33625;BME280;19962;47.820;1.930;2023-04-26T11:16:02;100386.47;;;17.33;56.54
33625;BME280;19962;47.820;1.930;2023-04-26T11:18:29;100376.22;;;17.29;57.06
33625;BME280;19962;47.820;1.930;2023-04-26T11:20:59;100380.41;;;17.26;57.37
33625;BME280;19962;47.820;1.930;2023-04-26T11:23:28;100382.34;;;17.41;57.87
33625;BME280;19962;47.820;1.930;2023-04-26T11:26:05;100383.44;;;17.45;57.66
33625;BME280;19962;47.820;1.930;2023-04-26T11:28:34;100372.94;;;17.42;57.29
33625;BME280;19962;47.820;1.930;2023-04-26T11:31:04;100376.50;;;17.48;56.53
33625;BME280;19962;47.820;1.930;2023-04-26T11:33:31;100374.00;;;17.46;56.26
33625;BME280;19962;47.820;1.930;2023-04-26T11:35:59;100376.22;;;17.49;56.18
33625;BME280;19962;47.820;1.930;2023-04-26T11:38:26;100369.00;;;17.53;56.03
33625;BME280;19962;47.820;1.930;2023-04-26T11:40:57;100363.72;;;17.67;56.05
33625;BME280;19962;47.820;1.930;2023-04-26T11:43:37;100361.72;;;17.77;55.71
33625;BME280;19962;47.820;1.930;2023-04-26T11:46:05;100362.28;;;17.84;55.21
33625;BME280;19962;47.820;1.930;2023-04-26T11:48:32;100360.59;;;17.88;55.49
33625;BME280;19962;47.820;1.930;2023-04-26T11:50:59;100352.25;;;17.93;55.85
33625;BME280;19962;47.820;1.930;2023-04-26T11:53:36;100365.00;;;17.99;55.90
33625;BME280;19962;47.820;1.930;2023-04-26T11:56:13;100353.91;;;17.99;55.71
33625;BME280;19962;47.820;1.930;2023-04-26T11:58:42;100355.28;;;18.07;55.80
33625;BME280;19962;47.820;1.930;2023-04-26T12:01:08;100349.72;;;18.02;55.63
33625;BME280;19962;47.820;1.930;2023-04-26T12:03:35;100345.53;;;18.04;55.83
33625;BME280;19962;47.820;1.930;2023-04-26T12:06:03;100338.88;;;18.10;55.98
33625;BME280;19962;47.820;1.930;2023-04-26T12:08:30;100344.16;;;18.12;55.93
33625;BME280;19962;47.820;1.930;2023-04-26T12:11:01;100348.84;;;18.11;55.64
33625;BME280;19962;47.820;1.930;2023-04-26T12:13:28;100344.44;;;18.10;54.50
33625;BME280;19962;47.820;1.930;2023-04-26T12:15:55;100338.91;;;18.05;54.10
33625;BME280;19962;47.820;1.930;2023-04-26T12:18:25;100348.06;;;18.01;53.38
33625;BME280;19962;47.820;1.930;2023-04-26T12:20:57;100344.47;;;18.00;53.44
33625;BME280;19962;47.820;1.930;2023-04-26T12:23:24;100361.94;;;18.01;53.63
33625;BME280;19962;47.820;1.930;2023-04-26T12:25:55;100353.38;;;17.97;53.44
33625;BME280;19962;47.820;1.930;2023-04-26T12:28:23;100354.75;;;17.95;53.14
33625;BME280;19962;47.820;1.930;2023-04-26T12:30:49;100348.66;;;17.88;53.17
33625;BME280;19962;47.820;1.930;2023-04-26T12:33:16;100350.31;;;17.89;53.41
33625;BME280;19962;47.820;1.930;2023-04-26T12:35:45;100354.50;;;17.81;53.24
33625;BME280;19962;47.820;1.930;2023-04-26T12:38:11;100343.97;;;17.83;52.89
33625;BME280;19962;47.820;1.930;2023-04-26T12:40:38;100358.66;;;17.84;52.76
33625;BME280;19962;47.820;1.930;2023-04-26T12:43:04;100349.53;;;17.78;51.67
33625;BME280;19962;47.820;1.930;2023-04-26T12:45:30;100352.88;;;17.75;51.65
33625;BME280;19962;47.820;1.930;2023-04-26T12:47:56;100348.44;;;17.79;52.31
33625;BME280;19962;47.820;1.930;2023-04-26T12:50:22;100349.53;;;17.83;51.85
33625;BME280;19962;47.820;1.930;2023-04-26T12:52:48;100350.06;;;17.85;51.59
33625;BME280;19962;47.820;1.930;2023-04-26T12:55:15;100363.09;;;17.90;51.73
33625;BME280;19962;47.820;1.930;2023-04-26T12:57:42;100361.13;;;17.95;51.73
33625;BME280;19962;47.820;1.930;2023-04-26T13:00:11;100371.13;;;18.01;51.62
33625;BME280;19962;47.820;1.930;2023-04-26T13:02:38;100368.31;;;18.06;51.46
33625;BME280;19962;47.820;1.930;2023-04-26T13:05:04;100370.22;;;18.11;51.45
33625;BME280;19962;47.820;1.930;2023-04-26T13:07:36;100372.16;;;18.15;52.30
33625;BME280;19962;47.820;1.930;2023-04-26T13:10:05;100366.03;;;18.23;51.79
33625;BME280;19962;47.820;1.930;2023-04-26T13:12:31;100373.22;;;18.29;51.27
33625;BME280;19962;47.820;1.930;2023-04-26T13:14:58;100362.66;;;18.31;51.38